Time;durP1;ratioP1;P1;durP2;ratioP2;P2;SDS_P1;SDS_P2;PMS_P1;PMS_P2;Temp;Humidity;BMP_temperature;BMP_pressure;BME280_temperature;BME280_humidity;BME280_pressure;Samples;Min_cycle;Max_cycle;Signal;HPM_P1;HPM_P2
2023/05/16 00:00:53;;;;;;;5.50;0.70;;;;;;;;;;5069631;28;20123;-69
2023/05/16 00:03:20;;;;;;;6.22;0.85;;;;;;;;;;5070099;28;20045;-69
2023/05/16 00:05:49;;;;;;;8.02;1.08;;;;;;;;;;5063431;28;20041;-68
2023/05/16 00:08:16;;;;;;;4.85;0.90;;;;;;;;;;5070172;28;20051;-69
2023/05/16 00:10:44;;;;;;;6.82;0.68;;;;;;;;;;5067817;28;20044;-68
2023/05/16 00:13:12;;;;;;;7.60;1.00;;;;;;;;;;5067808;28;20041;-69
2023/05/16 00:15:40;;;;;;;5.68;0.82;;;;;;;;;;5069565;28;20121;-69
2023/05/16 00:18:08;;;;;;;7.25;1.25;;;;;;;;;;5067744;28;20083;-68
2023/05/16 00:20:36;;;;;;;4.95;0.65;;;;;;;;;;5061554;28;20132;-68
2023/05/16 00:23:03;;;;;;;4.22;0.73;;;;;;;;;;5069631;28;20153;-68
2023/05/16 00:25:30;;;;;;;9.02;1.00;;;;;;;;;;5067024;28;20052;-69
2023/05/16 00:27:58;;;;;;;6.93;1.02;;;;;;;;;;5069180;28;20052;-68
2023/05/16 00:30:26;;;;;;;3.47;0.70;;;;;;;;;;5071847;28;20444;-68
2023/05/16 00:32:54;;;;;;;5.68;0.60;;;;;;;;;;5069078;28;20159;-68
2023/05/16 00:35:22;;;;;;;4.75;0.63;;;;;;;;;;5062991;28;20161;-68
2023/05/16 00:37:49;;;;;;;4.18;0.60;;;;;;;;;;5058354;28;20052;-69
2023/05/16 00:40:16;;;;;;;5.00;0.90;;;;;;;;;;5066156;28;20050;-68
2023/05/16 00:42:44;;;;;;;11.85;0.80;;;;;;;;;;5061695;28;20321;-68
2023/05/16 00:45:11;;;;;;;3.20;0.73;;;;;;;;;;5070072;28;20052;-68
2023/05/16 00:47:40;;;;;;;6.75;1.10;;;;;;;;;;5066885;28;20056;-69
2023/05/16 00:50:07;;;;;;;4.32;0.80;;;;;;;;;;5067160;28;20044;-69
2023/05/16 00:52:35;;;;;;;4.28;0.95;;;;;;;;;;5069404;28;20062;-69
2023/05/16 00:55:03;;;;;;;4.07;0.60;;;;;;;;;;5067403;28;20053;-69
2023/05/16 00:57:30;;;;;;;11.88;0.90;;;;;;;;;;5068560;28;20052;-69
2023/05/16 00:59:57;;;;;;;4.28;0.73;;;;;;;;;;5069706;28;20056;-69
2023/05/16 01:02:27;;;;;;;6.53;0.77;;;;;;;;;;5063966;28;20385;-69
2023/05/16 01:04:57;;;;;;;10.60;0.88;;;;;;;;;;5056737;28;20064;-68
2023/05/16 01:07:25;;;;;;;6.38;0.75;;;;;;;;;;5064366;28;20063;-69
2023/05/16 01:09:52;;;;;;;2.28;0.77;;;;;;;;;;5072542;28;20048;-69
2023/05/16 01:12:24;;;;;;;4.90;0.60;;;;;;;;;;5061856;28;20048;-69
2023/05/16 01:14:56;;;;;;;5.13;0.70;;;;;;;;;;5067362;28;20119;-69
2023/05/16 01:17:28;;;;;;;4.93;0.70;;;;;;;;;;5067449;28;20126;-69
2023/05/16 01:20:05;;;;;;;5.75;0.57;;;;;;;;;;5063657;28;20065;-68
2023/05/16 01:22:39;;;;;;;4.65;0.80;;;;;;;;;;5062792;28;20048;-69
2023/05/16 01:25:09;;;;;;;7.45;1.10;;;;;;;;;;5063025;28;20072;-68
2023/05/16 01:27:39;;;;;;;6.10;0.98;;;;;;;;;;5068053;28;20514;-68
2023/05/16 01:30:17;;;;;;;8.23;0.90;;;;;;;;;;5055878;28;20099;-68
2023/05/16 01:32:44;;;;;;;3.85;0.70;;;;;;;;;;5068537;28;20052;-69
2023/05/16 01:35:12;;;;;;;13.02;1.13;;;;;;;;;;5066826;28;20060;-69
2023/05/16 01:37:43;;;;;;;4.43;0.77;;;;;;;;;;5066347;28;20503;-69
2023/05/16 01:40:13;;;;;;;7.90;0.80;;;;;;;;;;5061475;28;20052;-68
2023/05/16 01:42:44;;;;;;;4.30;0.90;;;;;;;;;;5066344;28;20056;-68
2023/05/16 01:45:15;;;;;;;5.40;0.55;;;;;;;;;;5066171;28;20056;-68
2023/05/16 01:47:45;;;;;;;6.13;0.60;;;;;;;;;;5063077;28;20405;-69
2023/05/16 01:50:15;;;;;;;3.15;0.68;;;;;;;;;;5057775;28;20094;-68
2023/05/16 01:52:45;;;;;;;4.47;0.80;;;;;;;;;;5056413;28;20055;-68
2023/05/16 01:55:15;;;;;;;6.25;0.80;;;;;;;;;;5060026;28;20052;-69
2023/05/16 01:57:46;;;;;;;6.53;0.70;;;;;;;;;;5066795;28;20054;-69
2023/05/16 02:00:13;;;;;;;6.60;0.90;;;;;;;;;;5059671;28;20055;-69
2023/05/16 02:02:40;;;;;;;4.55;0.60;;;;;;;;;;5073769;28;20538;-69
2023/05/16 02:05:08;;;;;;;5.07;0.88;;;;;;;;;;5063951;28;20049;-68
2023/05/16 02:07:35;;;;;;;4.80;0.80;;;;;;;;;;5068950;28;20407;-69
2023/05/16 02:10:03;;;;;;;3.35;0.50;;;;;;;;;;5064105;28;20107;-68
2023/05/16 02:12:30;;;;;;;5.55;0.88;;;;;;;;;;5072382;28;20555;-69
2023/05/16 02:14:59;;;;;;;6.07;1.13;;;;;;;;;;5065396;28;20074;-68
2023/05/16 02:17:26;;;;;;;4.88;0.77;;;;;;;;;;5070030;28;20543;-69
2023/05/16 02:19:54;;;;;;;4.82;0.47;;;;;;;;;;5070442;28;20546;-68
2023/05/16 02:22:21;;;;;;;4.38;0.75;;;;;;;;;;5071714;28;20052;-69
2023/05/16 02:24:48;;;;;;;4.15;0.47;;;;;;;;;;5063851;28;20496;-69
2023/05/16 02:27:15;;;;;;;2.00;0.55;;;;;;;;;;5067480;28;20041;-69
2023/05/16 02:29:42;;;;;;;2.40;0.55;;;;;;;;;;5070569;28;20060;-69
2023/05/16 02:32:11;;;;;;;3.03;0.63;;;;;;;;;;5069350;28;20123;-69
2023/05/16 02:34:38;;;;;;;4.28;0.63;;;;;;;;;;5066499;28;20071;-69
2023/05/16 02:37:06;;;;;;;6.68;0.65;;;;;;;;;;5067945;28;20052;-69
2023/05/16 02:39:33;;;;;;;3.17;0.60;;;;;;;;;;5067931;28;20055;-68
2023/05/16 02:42:00;;;;;;;2.47;0.90;;;;;;;;;;5069907;28;20781;-69
2023/05/16 02:44:27;;;;;;;5.85;0.70;;;;;;;;;;5069986;28;20041;-68
2023/05/16 02:46:55;;;;;;;5.40;0.65;;;;;;;;;;5071099;28;20050;-69
2023/05/16 02:49:23;;;;;;;4.55;0.70;;;;;;;;;;5069497;28;20059;-69
2023/05/16 02:51:50;;;;;;;6.40;0.70;;;;;;;;;;5071311;28;20056;-69
2023/05/16 02:54:18;;;;;;;5.88;0.60;;;;;;;;;;5063519;28;20067;-68
2023/05/16 02:56:45;;;;;;;3.42;0.63;;;;;;;;;;5066291;28;20719;-69
2023/05/16 02:59:12;;;;;;;4.53;0.55;;;;;;;;;;5066117;28;20051;-69
2023/05/16 03:01:40;;;;;;;4.82;0.40;;;;;;;;;;5066211;28;20056;-69
2023/05/16 03:04:07;;;;;;;13.70;0.77;;;;;;;;;;5074062;28;20044;-69
2023/05/16 03:06:36;;;;;;;4.30;0.60;;;;;;;;;;5069119;28;20617;-69
2023/05/16 03:09:03;;;;;;;6.97;0.85;;;;;;;;;;5072880;28;20048;-69
2023/05/16 03:11:30;;;;;;;3.60;0.70;;;;;;;;;;5067691;28;20110;-69
2023/05/16 03:13:58;;;;;;;5.05;0.77;;;;;;;;;;5065593;28;20045;-69
2023/05/16 03:16:26;;;;;;;3.55;0.60;;;;;;;;;;5068621;28;20056;-69
2023/05/16 03:18:53;;;;;;;3.50;0.50;;;;;;;;;;5070111;28;20048;-69
2023/05/16 03:21:20;;;;;;;5.85;0.77;;;;;;;;;;5074311;28;20044;-69
2023/05/16 03:23:49;;;;;;;7.63;0.60;;;;;;;;;;5070916;28;20045;-69
2023/05/16 03:26:16;;;;;;;4.95;0.50;;;;;;;;;;5067301;28;20058;-68
2023/05/16 03:28:43;;;;;;;4.88;0.60;;;;;;;;;;5067325;28;20518;-69
2023/05/16 03:31:10;;;;;;;5.22;0.70;;;;;;;;;;5070215;28;20048;-69
2023/05/16 03:33:38;;;;;;;5.93;0.68;;;;;;;;;;5068663;28;20112;-69
2023/05/16 03:36:05;;;;;;;5.53;0.68;;;;;;;;;;5070421;28;20067;-69
2023/05/16 03:38:32;;;;;;;2.80;0.70;;;;;;;;;;5068372;28;20045;-69
2023/05/16 03:41:01;;;;;;;4.20;0.60;;;;;;;;;;5068653;28;20510;-69
2023/05/16 03:43:28;;;;;;;5.30;0.70;;;;;;;;;;5070833;28;20044;-69
2023/05/16 03:45:56;;;;;;;2.55;0.60;;;;;;;;;;5069348;28;20495;-69
2023/05/16 03:48:23;;;;;;;4.97;0.60;;;;;;;;;;5069933;28;20048;-68
2023/05/16 03:50:51;;;;;;;2.78;0.50;;;;;;;;;;5069264;28;20055;-69
2023/05/16 03:53:18;;;;;;;4.93;0.73;;;;;;;;;;5068985;28;20079;-69
2023/05/16 03:55:45;;;;;;;4.00;0.50;;;;;;;;;;5068835;28;20052;-69
2023/05/16 03:58:15;;;;;;;3.28;0.50;;;;;;;;;;5070798;28;20072;-68
2023/05/16 04:00:42;;;;;;;7.53;0.57;;;;;;;;;;5065738;28;20051;-68
2023/05/16 04:03:10;;;;;;;4.20;0.60;;;;;;;;;;5065565;28;20047;-69
2023/05/16 04:05:37;;;;;;;5.72;0.70;;;;;;;;;;5063538;28;20117;-69
2023/05/16 04:08:04;;;;;;;6.03;0.60;;;;;;;;;;5071147;28;20431;-69
2023/05/16 04:10:32;;;;;;;2.78;0.35;;;;;;;;;;5070853;28;20060;-69
2023/05/16 04:12:59;;;;;;;2.45;0.50;;;;;;;;;;5070124;28;20450;-68
2023/05/16 04:15:27;;;;;;;6.38;1.13;;;;;;;;;;5068333;28;20056;-69
2023/05/16 04:17:55;;;;;;;5.95;0.52;;;;;;;;;;5068438;28;20055;-69
2023/05/16 04:20:22;;;;;;;3.15;0.50;;;;;;;;;;5068197;28;20048;-69
2023/05/16 04:22:50;;;;;;;4.53;0.50;;;;;;;;;;5071324;28;20079;-69
2023/05/16 04:25:18;;;;;;;4.03;0.43;;;;;;;;;;5066638;28;20056;-68
2023/05/16 04:27:45;;;;;;;2.58;0.52;;;;;;;;;;5068673;28;20123;-68
2023/05/16 04:30:13;;;;;;;4.85;0.57;;;;;;;;;;5072289;28;20384;-68
2023/05/16 04:32:41;;;;;;;3.85;0.60;;;;;;;;;;5069038;28;20052;-69
2023/05/16 04:35:09;;;;;;;5.10;0.60;;;;;;;;;;5067460;28;20495;-69
2023/05/16 04:37:36;;;;;;;3.60;0.47;;;;;;;;;;5068785;28;20091;-69
2023/05/16 04:40:05;;;;;;;4.63;0.60;;;;;;;;;;5064597;28;20056;-69
2023/05/16 04:42:32;;;;;;;5.13;0.50;;;;;;;;;;5064259;28;20110;-69
2023/05/16 04:45:00;;;;;;;9.70;0.50;;;;;;;;;;5063419;28;20048;-69
2023/05/16 04:47:27;;;;;;;4.20;0.70;;;;;;;;;;5064556;28;20044;-68
2023/05/16 04:49:56;;;;;;;10.60;0.63;;;;;;;;;;5064980;28;20453;-69
2023/05/16 04:52:23;;;;;;;6.88;0.75;;;;;;;;;;5062465;28;20483;-69
2023/05/16 04:54:51;;;;;;;2.28;0.40;;;;;;;;;;5061596;28;20051;-69
2023/05/16 04:57:19;;;;;;;3.25;0.40;;;;;;;;;;5064074;28;20461;-69
2023/05/16 04:59:46;;;;;;;2.88;0.45;;;;;;;;;;5062570;28;20055;-69
2023/05/16 05:02:13;;;;;;;3.15;0.47;;;;;;;;;;5061587;28;20041;-69
2023/05/16 05:04:40;;;;;;;1.35;0.30;;;;;;;;;;5062798;28;20056;-69
2023/05/16 05:07:09;;;;;;;1.55;0.40;;;;;;;;;;5063330;28;20044;-69
2023/05/16 05:09:36;;;;;;;1.55;0.30;;;;;;;;;;5059023;28;20048;-70
2023/05/16 05:12:04;;;;;;;1.63;0.30;;;;;;;;;;5064937;28;20041;-70
2023/05/16 05:14:31;;;;;;;3.33;0.43;;;;;;;;;;5054266;28;20049;-70
2023/05/16 05:16:58;;;;;;;3.47;0.40;;;;;;;;;;5062363;28;20499;-69
2023/05/16 05:19:25;;;;;;;4.47;0.38;;;;;;;;;;5064860;28;20041;-70
2023/05/16 05:21:52;;;;;;;2.70;0.55;;;;;;;;;;5064508;28;20052;-69
2023/05/16 05:24:21;;;;;;;5.90;0.38;;;;;;;;;;5060497;28;20056;-69
2023/05/16 05:26:48;;;;;;;3.22;0.60;;;;;;;;;;5065074;28;20443;-69
2023/05/16 05:29:15;;;;;;;8.05;0.60;;;;;;;;;;5061773;28;20044;-69
2023/05/16 05:31:43;;;;;;;5.85;0.60;;;;;;;;;;5064796;28;20094;-69
2023/05/16 05:34:10;;;;;;;4.43;0.40;;;;;;;;;;5066214;28;20086;-69
2023/05/16 05:36:37;;;;;;;0.98;0.30;;;;;;;;;;5074974;28;20048;-69
2023/05/16 05:39:05;;;;;;;2.17;0.50;;;;;;;;;;5072478;28;20052;-69
2023/05/16 05:41:33;;;;;;;3.38;0.35;;;;;;;;;;5061184;28;20440;-69
2023/05/16 05:44:00;;;;;;;1.85;0.30;;;;;;;;;;5065142;28;20051;-70
2023/05/16 05:46:28;;;;;;;1.13;0.30;;;;;;;;;;5064350;28;20140;-70
2023/05/16 05:48:55;;;;;;;2.25;0.40;;;;;;;;;;5057557;28;20045;-70
2023/05/16 05:51:22;;;;;;;1.83;0.30;;;;;;;;;;5064418;28;20064;-69
2023/05/16 05:53:50;;;;;;;2.88;0.40;;;;;;;;;;5060254;28;20049;-69
2023/05/16 05:56:17;;;;;;;3.60;0.50;;;;;;;;;;5068715;28;20399;-69
2023/05/16 05:58:45;;;;;;;3.20;0.60;;;;;;;;;;5067292;28;20045;-70
2023/05/16 06:01:13;;;;;;;2.05;0.52;;;;;;;;;;5079583;28;20468;-70
2023/05/16 06:03:40;;;;;;;4.53;0.70;;;;;;;;;;5068731;28;20045;-70
2023/05/16 06:06:08;;;;;;;4.30;0.70;;;;;;;;;;5067817;28;20060;-70
2023/05/16 06:08:35;;;;;;;5.93;0.77;;;;;;;;;;5078351;28;20048;-70
2023/05/16 06:11:03;;;;;;;6.82;0.80;;;;;;;;;;5065800;28;20084;-70
2023/05/16 06:13:30;;;;;;;8.15;0.88;;;;;;;;;;5059800;28;20084;-69
2023/05/16 06:15:58;;;;;;;4.13;0.40;;;;;;;;;;5071328;28;20056;-69
2023/05/16 06:18:26;;;;;;;6.95;0.80;;;;;;;;;;5070455;28;20056;-70
2023/05/16 06:20:53;;;;;;;2.88;0.65;;;;;;;;;;5071854;28;20060;-70
2023/05/16 06:23:20;;;;;;;5.50;0.60;;;;;;;;;;5065630;28;20437;-70
2023/05/16 06:25:48;;;;;;;3.30;0.57;;;;;;;;;;5071029;28;20056;-70
2023/05/16 06:28:15;;;;;;;4.40;0.63;;;;;;;;;;5074755;28;20494;-70
2023/05/16 06:30:42;;;;;;;2.97;0.50;;;;;;;;;;5070043;28;20049;-70
2023/05/16 06:33:11;;;;;;;5.78;0.60;;;;;;;;;;5074173;28;20044;-70
2023/05/16 06:35:38;;;;;;;6.20;0.85;;;;;;;;;;5070416;28;20080;-70
2023/05/16 06:38:05;;;;;;;6.70;0.80;;;;;;;;;;5067345;28;20055;-70
2023/05/16 06:40:32;;;;;;;3.50;0.65;;;;;;;;;;5072603;28;20048;-70
2023/05/16 06:43:00;;;;;;;2.45;0.60;;;;;;;;;;5069375;28;20415;-70
2023/05/16 06:45:27;;;;;;;5.10;0.68;;;;;;;;;;5072183;28;20056;-70
2023/05/16 06:47:54;;;;;;;2.58;0.47;;;;;;;;;;5068453;28;20411;-70
2023/05/16 06:50:23;;;;;;;6.40;0.70;;;;;;;;;;5070594;28;20090;-70
2023/05/16 06:52:50;;;;;;;1.88;0.65;;;;;;;;;;5070025;28;20641;-70
2023/05/16 06:55:18;;;;;;;6.38;0.75;;;;;;;;;;5068833;28;20060;-70
2023/05/16 06:57:45;;;;;;;6.38;0.77;;;;;;;;;;5067944;28;20040;-70
2023/05/16 07:00:12;;;;;;;4.57;0.60;;;;;;;;;;5069575;28;20056;-68
2023/05/16 07:02:40;;;;;;;6.80;0.75;;;;;;;;;;5068604;28;20045;-68
2023/05/16 07:05:07;;;;;;;2.58;0.60;;;;;;;;;;5067247;28;20045;-68
2023/05/16 07:07:36;;;;;;;5.47;0.60;;;;;;;;;;5065598;28;20060;-68
2023/05/16 07:10:03;;;;;;;6.03;0.90;;;;;;;;;;5067284;28;20047;-68
2023/05/16 07:12:30;;;;;;;5.97;0.80;;;;;;;;;;5065009;28;20044;-68
2023/05/16 07:14:58;;;;;;;4.70;0.90;;;;;;;;;;5065216;28;20052;-68
2023/05/16 07:17:25;;;;;;;4.85;0.80;;;;;;;;;;5069197;28;20054;-68
2023/05/16 07:19:52;;;;;;;3.67;0.82;;;;;;;;;;5067839;28;20059;-69
2023/05/16 07:22:19;;;;;;;4.65;0.70;;;;;;;;;;5069761;28;20071;-68
2023/05/16 07:24:48;;;;;;;4.82;0.50;;;;;;;;;;5065718;28;20052;-68
2023/05/16 07:27:15;;;;;;;6.13;0.68;;;;;;;;;;5070954;28;20049;-68
2023/05/16 07:29:43;;;;;;;6.65;1.17;;;;;;;;;;5068029;28;20045;-68
2023/05/16 07:32:10;;;;;;;3.03;0.60;;;;;;;;;;5069506;28;20137;-68
2023/05/16 07:34:37;;;;;;;4.45;0.88;;;;;;;;;;5067925;28;20055;-68
2023/05/16 07:37:11;;;;;;;5.03;0.65;;;;;;;;;;5066553;28;20076;-68
2023/05/16 07:39:38;;;;;;;2.88;0.40;;;;;;;;;;5065717;28;20088;-68
2023/05/16 07:42:07;;;;;;;4.13;0.47;;;;;;;;;;5067365;28;20055;-69
2023/05/16 07:44:35;;;;;;;6.78;0.85;;;;;;;;;;5068497;28;20056;-68
2023/05/16 07:47:02;;;;;;;4.05;0.60;;;;;;;;;;5067675;28;20040;-68
2023/05/16 07:49:29;;;;;;;5.35;1.02;;;;;;;;;;5064987;28;20048;-68
2023/05/16 07:51:56;;;;;;;3.85;0.63;;;;;;;;;;5061091;28;20049;-68
2023/05/16 07:54:24;;;;;;;6.90;0.80;;;;;;;;;;5068838;28;20379;-68
2023/05/16 07:56:51;;;;;;;5.00;0.63;;;;;;;;;;5065315;28;20068;-68
2023/05/16 07:59:20;;;;;;;4.30;0.55;;;;;;;;;;5067871;28;20052;-68
2023/05/16 08:01:47;;;;;;;4.05;0.70;;;;;;;;;;5065729;28;20182;-68
2023/05/16 08:04:14;;;;;;;5.40;0.90;;;;;;;;;;5064317;28;20043;-68
2023/05/16 08:06:41;;;;;;;2.70;0.57;;;;;;;;;;5063320;28;20060;-68
2023/05/16 08:09:09;;;;;;;7.75;0.88;;;;;;;;;;5070433;28;20056;-68
2023/05/16 08:11:36;;;;;;;5.45;0.60;;;;;;;;;;5059687;28;20052;-68
2023/05/16 08:14:03;;;;;;;1.95;0.63;;;;;;;;;;5064904;28;20036;-69
2023/05/16 08:16:32;;;;;;;3.70;0.80;;;;;;;;;;5066432;28;20040;-68
2023/05/16 08:19:00;;;;;;;3.22;0.60;;;;;;;;;;5065137;28;20542;-68
2023/05/16 08:21:27;;;;;;;4.18;0.88;;;;;;;;;;5064295;28;20062;-68
2023/05/16 08:23:55;;;;;;;4.32;0.50;;;;;;;;;;5063697;28;20045;-68
2023/05/16 08:26:23;;;;;;;5.97;0.73;;;;;;;;;;5066521;28;20075;-68
2023/05/16 08:28:50;;;;;;;2.67;0.40;;;;;;;;;;5066101;28;20049;-68
2023/05/16 08:31:17;;;;;;;3.13;0.55;;;;;;;;;;5060250;28;20127;-68
2023/05/16 08:33:46;;;;;;;3.47;0.60;;;;;;;;;;5067061;28;20431;-68
2023/05/16 08:36:14;;;;;;;3.97;0.60;;;;;;;;;;5058979;28;20045;-68
2023/05/16 08:38:41;;;;;;;2.13;0.60;;;;;;;;;;5069098;28;20063;-68
2023/05/16 08:41:09;;;;;;;3.67;0.90;;;;;;;;;;5066411;28;20041;-68
2023/05/16 08:43:36;;;;;;;2.13;0.60;;;;;;;;;;5066304;28;20051;-68
2023/05/16 08:46:03;;;;;;;2.58;0.68;;;;;;;;;;5062524;28;20411;-69
2023/05/16 08:48:32;;;;;;;6.30;1.10;;;;;;;;;;5065713;28;20147;-69
2023/05/16 08:51:02;;;;;;;1.77;0.47;;;;;;;;;;5065394;28;20048;-68
2023/05/16 08:53:32;;;;;;;2.65;0.50;;;;;;;;;;5066362;28;20040;-69
2023/05/16 08:56:00;;;;;;;4.47;0.88;;;;;;;;;;5062958;28;20044;-68
2023/05/16 08:58:28;;;;;;;2.03;0.40;;;;;;;;;;5066829;28;20571;-69
2023/05/16 09:00:56;;;;;;;2.65;0.60;;;;;;;;;;5063622;28;20055;-69
2023/05/16 09:03:24;;;;;;;5.85;0.50;;;;;;;;;;5069146;28;20041;-68
2023/05/16 09:05:51;;;;;;;4.75;0.90;;;;;;;;;;5065427;28;20553;-68
2023/05/16 09:08:20;;;;;;;2.80;0.50;;;;;;;;;;5070962;28;20047;-68
2023/05/16 09:10:47;;;;;;;1.85;0.70;;;;;;;;;;5066400;28;20053;-68
2023/05/16 09:13:14;;;;;;;4.10;0.75;;;;;;;;;;5067335;28;20041;-68
2023/05/16 09:15:42;;;;;;;4.63;0.75;;;;;;;;;;5071168;28;20060;-68
2023/05/16 09:18:12;;;;;;;3.20;1.02;;;;;;;;;;5069648;28;20064;-68
2023/05/16 09:20:45;;;;;;;3.13;0.43;;;;;;;;;;5071036;28;20113;-68
2023/05/16 09:23:13;;;;;;;1.75;0.50;;;;;;;;;;5068424;28;20124;-68
2023/05/16 09:25:41;;;;;;;2.70;0.70;;;;;;;;;;5068523;28;20056;-68
2023/05/16 09:28:11;;;;;;;1.85;0.57;;;;;;;;;;5064465;28;20056;-68
2023/05/16 09:30:38;;;;;;;3.65;0.80;;;;;;;;;;5069133;28;20052;-68
2023/05/16 09:33:07;;;;;;;3.50;0.30;;;;;;;;;;5071464;28;20534;-68
2023/05/16 09:35:35;;;;;;;2.83;0.60;;;;;;;;;;5068948;28;20060;-68
2023/05/16 09:38:02;;;;;;;4.95;0.68;;;;;;;;;;5070447;28;20535;-68
2023/05/16 09:40:29;;;;;;;1.05;0.40;;;;;;;;;;5068696;28;20048;-69
2023/05/16 09:43:04;;;;;;;2.42;0.52;;;;;;;;;;5065574;28;20056;-69
2023/05/16 09:45:32;;;;;;;1.70;0.57;;;;;;;;;;5065863;28;20111;-69
2023/05/16 09:48:02;;;;;;;3.90;0.70;;;;;;;;;;5067421;28;20045;-69
2023/05/16 09:50:30;;;;;;;3.63;0.70;;;;;;;;;;5071535;28;20048;-68
2023/05/16 09:52:57;;;;;;;3.42;0.65;;;;;;;;;;5069360;28;20048;-68
2023/05/16 09:55:24;;;;;;;2.03;0.60;;;;;;;;;;5072470;28;20052;-69
2023/05/16 09:57:52;;;;;;;4.45;0.68;;;;;;;;;;5071037;28;20041;-68
2023/05/16 10:00:21;;;;;;;2.60;0.60;;;;;;;;;;5071006;28;20051;-69
2023/05/16 10:02:48;;;;;;;2.67;0.70;;;;;;;;;;5071321;28;20044;-68
2023/05/16 10:05:16;;;;;;;2.92;0.60;;;;;;;;;;5069732;28;20051;-69
2023/05/16 10:07:44;;;;;;;3.55;0.60;;;;;;;;;;5069968;28;20060;-68
2023/05/16 10:10:13;;;;;;;2.75;0.60;;;;;;;;;;5070711;28;20075;-69
2023/05/16 10:12:41;;;;;;;2.72;0.60;;;;;;;;;;5066468;28;20063;-69
2023/05/16 10:15:09;;;;;;;3.25;0.60;;;;;;;;;;5072328;28;20079;-69
2023/05/16 10:17:40;;;;;;;4.40;0.55;;;;;;;;;;5069825;28;20071;-69
2023/05/16 10:20:08;;;;;;;4.68;0.65;;;;;;;;;;5067767;28;20434;-69
2023/05/16 10:22:36;;;;;;;5.40;0.60;;;;;;;;;;5069147;28;20373;-69
2023/05/16 10:25:11;;;;;;;3.60;0.70;;;;;;;;;;5069622;28;20094;-69
2023/05/16 10:27:39;;;;;;;2.03;0.50;;;;;;;;;;5068239;28;20140;-69
2023/05/16 10:30:08;;;;;;;4.43;0.80;;;;;;;;;;5072499;28;20036;-68
2023/05/16 10:32:36;;;;;;;5.28;0.90;;;;;;;;;;5068047;28;20052;-69
2023/05/16 10:35:05;;;;;;;2.03;0.75;;;;;;;;;;5070292;28;20052;-69
2023/05/16 10:37:32;;;;;;;3.95;0.80;;;;;;;;;;5064008;28;20067;-69
2023/05/16 10:40:00;;;;;;;2.25;0.80;;;;;;;;;;5068162;28;20047;-69
2023/05/16 10:42:28;;;;;;;3.00;0.70;;;;;;;;;;5067497;28;20052;-69
2023/05/16 10:44:56;;;;;;;5.13;0.68;;;;;;;;;;5070186;28;20040;-69
2023/05/16 10:47:23;;;;;;;3.47;0.93;;;;;;;;;;5066284;28;20084;-69
2023/05/16 10:49:50;;;;;;;1.25;0.50;;;;;;;;;;5071438;28;20430;-69
2023/05/16 10:52:19;;;;;;;5.05;0.80;;;;;;;;;;5073853;28;20051;-69
2023/05/16 10:54:51;;;;;;;1.73;0.65;;;;;;;;;;5067246;28;20101;-69
2023/05/16 10:57:20;;;;;;;1.92;0.50;;;;;;;;;;5074074;28;20048;-69
2023/05/16 10:59:48;;;;;;;0.82;0.50;;;;;;;;;;5067171;28;20084;-69
2023/05/16 11:02:23;;;;;;;2.10;0.55;;;;;;;;;;5070043;28;20492;-69
2023/05/16 11:04:50;;;;;;;2.30;1.00;;;;;;;;;;5070616;28;20736;-68
2023/05/16 11:07:20;;;;;;;2.60;0.80;;;;;;;;;;5067895;28;20088;-68
2023/05/16 11:09:53;;;;;;;3.05;0.88;;;;;;;;;;5067583;28;20393;-68
2023/05/16 11:12:21;;;;;;;3.67;1.00;;;;;;;;;;5067240;28;20508;-69
2023/05/16 11:14:51;;;;;;;2.60;0.90;;;;;;;;;;5065940;28;20048;-69
2023/05/16 11:17:21;;;;;;;2.20;0.90;;;;;;;;;;5068122;28;20091;-69
2023/05/16 11:19:49;;;;;;;3.25;1.20;;;;;;;;;;5065483;28;20056;-69
2023/05/16 11:22:25;;;;;;;2.97;0.80;;;;;;;;;;5068324;28;20044;-69
2023/05/16 11:24:54;;;;;;;2.63;0.93;;;;;;;;;;5068103;28;20478;-69
2023/05/16 11:27:22;;;;;;;2.92;1.13;;;;;;;;;;5070118;28;20146;-70
2023/05/16 11:29:49;;;;;;;3.90;1.23;;;;;;;;;;5065376;28;20064;-69
2023/05/16 11:32:20;;;;;;;2.47;0.90;;;;;;;;;;5070933;28;20377;-69
2023/05/16 11:34:48;;;;;;;4.57;1.25;;;;;;;;;;5067261;28;20052;-69
2023/05/16 11:37:15;;;;;;;4.72;1.00;;;;;;;;;;5068272;28;20052;-71
2023/05/16 11:39:44;;;;;;;5.70;1.35;;;;;;;;;;5066976;28;20219;-71
2023/05/16 11:42:12;;;;;;;4.10;0.90;;;;;;;;;;5068804;28;20052;-69
2023/05/16 11:44:39;;;;;;;4.70;1.35;;;;;;;;;;5069569;28;20052;-70
2023/05/16 11:47:07;;;;;;;3.13;1.20;;;;;;;;;;5062231;28;20109;-70
2023/05/16 11:49:35;;;;;;;2.97;1.17;;;;;;;;;;5069966;28;20060;-69
2023/05/16 11:52:02;;;;;;;3.05;1.27;;;;;;;;;;5069018;28;20056;-70
2023/05/16 11:54:29;;;;;;;4.65;1.30;;;;;;;;;;5068808;28;20040;-69
2023/05/16 11:56:58;;;;;;;3.72;1.10;;;;;;;;;;5062278;28;20055;-69
2023/05/16 11:59:26;;;;;;;2.92;1.30;;;;;;;;;;5067756;28;20048;-69
2023/05/16 12:01:53;;;;;;;2.53;1.25;;;;;;;;;;5069725;28;20106;-69
2023/05/16 12:04:21;;;;;;;3.97;1.33;;;;;;;;;;5065117;28;20466;-69
2023/05/16 12:07:00;;;;;;;3.72;1.45;;;;;;;;;;5070280;28;20045;-69
2023/05/16 12:09:28;;;;;;;10.38;1.70;;;;;;;;;;5067629;28;20470;-69
2023/05/16 12:11:55;;;;;;;3.70;1.50;;;;;;;;;;5068790;28;20138;-69
2023/05/16 12:14:24;;;;;;;2.65;1.40;;;;;;;;;;5064771;28;20062;-69
2023/05/16 12:16:52;;;;;;;6.25;1.05;;;;;;;;;;5071158;28;20076;-69
2023/05/16 12:19:20;;;;;;;3.33;1.08;;;;;;;;;;5068718;28;20105;-69
2023/05/16 12:21:47;;;;;;;2.38;1.00;;;;;;;;;;5067958;28;20052;-69
2023/05/16 12:24:16;;;;;;;1.95;0.80;;;;;;;;;;5069823;28;20141;-69
2023/05/16 12:26:43;;;;;;;3.17;0.90;;;;;;;;;;5068437;28;20438;-69
2023/05/16 12:29:11;;;;;;;2.63;0.70;;;;;;;;;;5065885;28;20530;-69
2023/05/16 12:31:40;;;;;;;2.72;0.80;;;;;;;;;;5067343;28;20057;-69
2023/05/16 12:34:17;;;;;;;2.50;0.90;;;;;;;;;;5067261;28;20056;-68
2023/05/16 12:36:44;;;;;;;3.15;1.05;;;;;;;;;;5065575;28;20045;-69
2023/05/16 12:39:13;;;;;;;2.88;1.08;;;;;;;;;;5069175;28;20052;-68
2023/05/16 12:41:41;;;;;;;4.30;1.35;;;;;;;;;;5068570;28;20052;-69
2023/05/16 12:44:12;;;;;;;3.65;1.20;;;;;;;;;;5065687;28;20055;-69
2023/05/16 12:46:43;;;;;;;4.20;1.13;;;;;;;;;;5065077;28;20087;-69
2023/05/16 12:49:10;;;;;;;3.85;1.10;;;;;;;;;;5066586;28;20048;-69
2023/05/16 12:51:38;;;;;;;3.22;1.10;;;;;;;;;;5068417;28;20064;-69
2023/05/16 12:54:10;;;;;;;3.35;1.23;;;;;;;;;;5068971;28;20050;-69
2023/05/16 12:56:37;;;;;;;2.92;1.20;;;;;;;;;;5068163;28;20053;-69
2023/05/16 12:59:05;;;;;;;2.17;1.08;;;;;;;;;;5063750;28;20052;-69
2023/05/16 13:01:32;;;;;;;2.83;1.20;;;;;;;;;;5065070;28;20165;-69
2023/05/16 13:04:01;;;;;;;4.10;1.27;;;;;;;;;;5065670;28;20468;-69
2023/05/16 13:06:28;;;;;;;3.00;1.20;;;;;;;;;;5066820;28;20075;-68
2023/05/16 13:08:56;;;;;;;7.70;1.38;;;;;;;;;;5067043;28;20132;-69
2023/05/16 13:11:23;;;;;;;3.05;1.10;;;;;;;;;;5059673;28;20057;-69
2023/05/16 13:13:51;;;;;;;3.28;1.20;;;;;;;;;;5064697;28;20063;-69
2023/05/16 13:16:18;;;;;;;3.70;1.52;;;;;;;;;;5068831;28;20051;-70
2023/05/16 13:18:45;;;;;;;3.13;1.40;;;;;;;;;;5063424;28;20067;-69
2023/05/16 13:21:14;;;;;;;4.45;1.30;;;;;;;;;;5067954;28;20084;-69
2023/05/16 13:23:42;;;;;;;4.88;1.20;;;;;;;;;;5072803;28;20080;-69
2023/05/16 13:26:09;;;;;;;2.65;1.02;;;;;;;;;;5066357;28;20118;-69
2023/05/16 13:28:36;;;;;;;2.33;1.10;;;;;;;;;;5069608;28;20479;-69
2023/05/16 13:31:04;;;;;;;4.15;1.10;;;;;;;;;;5065720;28;20060;-69
2023/05/16 13:33:31;;;;;;;2.22;0.82;;;;;;;;;;5069019;28;20048;-69
2023/05/16 13:35:59;;;;;;;1.80;0.90;;;;;;;;;;5068720;28;20158;-69
2023/05/16 13:38:27;;;;;;;3.25;1.02;;;;;;;;;;5068875;28;20236;-69
2023/05/16 13:40:54;;;;;;;3.13;1.00;;;;;;;;;;5065236;28;20048;-69
2023/05/16 13:43:22;;;;;;;2.63;1.15;;;;;;;;;;5063234;28;20048;-69
2023/05/16 13:45:49;;;;;;;2.40;0.90;;;;;;;;;;5064687;28;20052;-69
2023/05/16 13:48:16;;;;;;;4.30;1.30;;;;;;;;;;5067655;28;20048;-69
2023/05/16 13:50:43;;;;;;;4.68;1.20;;;;;;;;;;5066430;28;20045;-69
2023/05/16 13:53:11;;;;;;;1.98;0.93;;;;;;;;;;5063763;28;20467;-69
2023/05/16 13:55:39;;;;;;;2.97;0.93;;;;;;;;;;5068446;28;20470;-69
2023/05/16 13:58:06;;;;;;;4.00;0.93;;;;;;;;;;5073699;28;20052;-69
2023/05/16 14:00:34;;;;;;;2.17;0.80;;;;;;;;;;5060873;28;20048;-69
2023/05/16 14:03:01;;;;;;;3.35;0.80;;;;;;;;;;5066546;28;20549;-69
2023/05/16 14:05:28;;;;;;;1.90;0.93;;;;;;;;;;5071648;28;20403;-68
2023/05/16 14:07:55;;;;;;;1.92;0.80;;;;;;;;;;5071433;28;20052;-69
2023/05/16 14:10:23;;;;;;;4.47;0.93;;;;;;;;;;5067493;28;20408;-69
2023/05/16 14:12:52;;;;;;;1.27;0.55;;;;;;;;;;5063607;28;20507;-68
2023/05/16 14:15:19;;;;;;;1.42;0.70;;;;;;;;;;5070152;28;20044;-69
2023/05/16 14:17:47;;;;;;;2.72;0.82;;;;;;;;;;5071987;28;20049;-69
2023/05/16 14:20:14;;;;;;;1.85;0.80;;;;;;;;;;5070141;28;20146;-69
2023/05/16 14:22:41;;;;;;;2.03;0.70;;;;;;;;;;5071859;28;20528;-68
2023/05/16 14:25:09;;;;;;;4.05;0.80;;;;;;;;;;5080567;28;20048;-69
2023/05/16 14:27:36;;;;;;;4.05;1.00;;;;;;;;;;5071832;28;20135;-69
2023/05/16 14:30:06;;;;;;;1.92;0.70;;;;;;;;;;5071814;28;20072;-69
2023/05/16 14:32:34;;;;;;;4.30;1.00;;;;;;;;;;5070331;28;20044;-69
2023/05/16 14:35:01;;;;;;;3.63;0.98;;;;;;;;;;5072662;28;20542;-68
2023/05/16 14:37:28;;;;;;;4.18;0.80;;;;;;;;;;5071508;28;20132;-68
2023/05/16 14:39:56;;;;;;;2.00;1.00;;;;;;;;;;5066719;28;20056;-68
2023/05/16 14:42:23;;;;;;;1.92;0.80;;;;;;;;;;5064774;28;20052;-68
2023/05/16 14:44:50;;;;;;;3.90;1.08;;;;;;;;;;5061523;28;20045;-69
2023/05/16 14:47:19;;;;;;;2.05;0.98;;;;;;;;;;5064079;28;20446;-68